Time;durP1;ratioP1;P1;durP2;ratioP2;P2;SDS_P1;SDS_P2;PMS_P1;PMS_P2;Temp;Humidity;BMP_temperature;BMP_pressure;BME280_temperature;BME280_humidity;BME280_pressure;Samples;Min_cycle;Max_cycle;Signal;HPM_P1;HPM_P2
2021/11/19 00:01:30;;;;;;;40.85;22.73;;;;;;;11.00;75.04;102599.31;4953860;28;20051;-61
2021/11/19 00:03:57;;;;;;;39.00;23.13;;;;;;;11.05;75.06;102599.22;4955847;28;20050;-61
2021/11/19 00:06:24;;;;;;;42.70;22.55;;;;;;;11.00;75.28;102599.31;4954627;28;20051;-62
2021/11/19 00:08:52;;;;;;;37.88;23.35;;;;;;;10.99;75.41;102602.84;4955574;28;20510;-58
2021/11/19 00:11:22;;;;;;;40.83;23.30;;;;;;;11.03;75.24;102601.84;4955542;28;20513;-59
2021/11/19 00:13:49;;;;;;;35.53;22.65;;;;;;;11.05;75.37;102600.06;4955565;28;20043;-61
2021/11/19 00:16:18;;;;;;;33.72;22.55;;;;;;;11.08;75.34;102604.34;4955553;28;20057;-63
2021/11/19 00:18:45;;;;;;;34.45;22.52;;;;;;;11.14;75.21;102605.97;4942432;28;20047;-61
2021/11/19 00:21:12;;;;;;;36.92;23.70;;;;;;;11.16;75.15;102612.91;4936867;28;20043;-66
2021/11/19 00:23:40;;;;;;;34.05;22.75;;;;;;;11.18;75.38;102599.72;4937685;28;20047;-60
2021/11/19 00:26:08;;;;;;;46.25;23.55;;;;;;;11.10;75.54;102603.41;4938181;28;20039;-61
2021/11/19 00:28:35;;;;;;;44.85;23.85;;;;;;;11.12;75.54;102608.63;4937807;28;20047;-61
2021/11/19 00:31:03;;;;;;;36.72;24.42;;;;;;;11.13;75.67;102605.09;4939068;28;20412;-67
2021/11/19 00:33:30;;;;;;;41.75;23.50;;;;;;;11.14;75.38;102604.19;4936896;28;20472;-61
2021/11/19 00:35:57;;;;;;;37.50;24.88;;;;;;;11.15;75.65;102605.91;4937232;28;20552;-63
2021/11/19 00:38:24;;;;;;;41.38;24.80;;;;;;;11.17;75.61;102606.72;4954766;28;20047;-61
2021/11/19 00:40:54;;;;;;;37.65;23.77;;;;;;;11.17;75.79;102605.88;4945866;28;20074;-61
2021/11/19 00:43:22;;;;;;;39.15;24.67;;;;;;;11.17;75.73;102606.72;4954829;28;20054;-61
2021/11/19 00:45:50;;;;;;;41.92;25.45;;;;;;;11.15;75.95;102607.66;4955125;28;20047;-61
2021/11/19 00:48:18;;;;;;;46.08;24.80;;;;;;;11.16;75.77;102605.00;4955124;28;20055;-61
2021/11/19 00:50:53;;;;;;;39.08;25.58;;;;;;;11.19;76.04;102618.06;4941914;28;20051;-69
2021/11/19 00:53:21;;;;;;;49.17;26.87;;;;;;;11.22;75.95;102622.34;4954913;28;20051;-62
2021/11/19 00:55:48;;;;;;;40.47;25.80;;;;;;;11.25;75.95;102622.28;4953421;28;20043;-61
2021/11/19 00:58:16;;;;;;;47.63;28.20;;;;;;;11.26;75.97;102622.22;4954317;28;20074;-61
2021/11/19 01:00:47;;;;;;;41.78;26.20;;;;;;;11.28;75.80;102623.03;4954478;28;20057;-62
2021/11/19 01:03:15;;;;;;;47.25;28.52;;;;;;;11.30;75.99;102624.75;4954593;28;20054;-62
2021/11/19 01:05:41;;;;;;;40.63;25.55;;;;;;;11.32;76.03;102622.94;4954562;28;20047;-61
2021/11/19 01:08:08;;;;;;;46.40;28.02;;;;;;;11.31;75.97;102621.22;4954086;28;20058;-61
2021/11/19 01:10:37;;;;;;;45.17;28.05;;;;;;;11.31;76.12;102621.22;4954447;28;20047;-61
2021/11/19 01:13:05;;;;;;;46.65;28.23;;;;;;;11.34;76.14;102623.75;4953736;28;20043;-62
2021/11/19 01:15:44;;;;;;;49.38;28.05;;;;;;;11.34;76.07;102618.50;4954233;28;20741;-69
2021/11/19 01:18:36;;;;;;;48.58;27.98;;;;;;;11.33;75.88;102615.03;4954343;28;20073;-64
2021/11/19 01:21:16;;;;;;;46.63;27.52;;;;;;;11.34;76.23;102614.13;4954213;28;20047;-62
2021/11/19 01:23:45;;;;;;;52.42;28.20;;;;;;;11.34;76.12;102613.25;4954293;28;20452;-61
2021/11/19 01:26:33;;;;;;;46.28;28.42;;;;;;;11.35;76.20;102605.34;4954254;28;20496;-61
2021/11/19 01:29:05;;;;;;;52.53;29.48;;;;;;;11.37;76.30;102610.53;4953154;28;20048;-66
2021/11/19 01:31:42;;;;;;;45.78;28.08;;;;;;;11.37;76.14;102606.13;4954258;28;20146;-61
2021/11/19 01:34:10;;;;;;;47.03;28.13;;;;;;;11.41;76.33;102612.16;4954131;28;20051;-61
2021/11/19 01:36:37;;;;;;;49.55;28.55;;;;;;;11.43;76.19;102611.19;4954236;28;20055;-61
2021/11/19 01:39:06;;;;;;;47.22;28.45;;;;;;;11.42;76.28;102608.63;4953872;28;20054;-61
2021/11/19 01:41:37;;;;;;;54.38;30.25;;;;;;;11.42;76.24;102608.63;4954061;28;20047;-65
2021/11/19 01:44:23;;;;;;;56.88;30.92;;;;;;;11.41;76.46;102606.91;4953184;28;20488;-60
2021/11/19 01:46:52;;;;;;;55.08;29.80;;;;;;;11.44;76.43;102605.03;4954051;28;20118;-62
2021/11/19 01:49:21;;;;;;;55.58;31.70;;;;;;;11.47;76.38;102611.13;4953984;28;20043;-62
2021/11/19 01:52:00;;;;;;;53.63;30.65;;;;;;;11.48;76.32;102618.97;4953898;28;20051;-61
2021/11/19 01:54:37;;;;;;;53.60;31.00;;;;;;;11.50;76.28;102625.00;4953980;28;20078;-60
2021/11/19 01:57:17;;;;;;;56.53;31.90;;;;;;;11.49;76.29;102611.91;4953882;28;20051;-61
2021/11/19 01:59:51;;;;;;;56.25;31.65;;;;;;;11.47;76.19;102609.34;4953096;28;20054;-61
2021/11/19 02:02:23;;;;;;;58.60;30.92;;;;;;;11.47;76.44;102622.50;4953981;28;20058;-61
2021/11/19 02:04:54;;;;;;;57.63;32.65;;;;;;;11.48;76.50;102612.81;4954203;28;20058;-61
2021/11/19 02:07:49;;;;;;;61.53;32.70;;;;;;;11.48;76.54;102620.72;4953712;28;20114;-61
2021/11/19 02:10:32;;;;;;;67.75;35.00;;;;;;;11.49;76.49;102614.56;4956761;28;20051;-69
2021/11/19 02:13:02;;;;;;;65.97;33.55;;;;;;;11.51;76.41;102618.84;4945839;28;20047;-67
2021/11/19 02:15:32;;;;;;;71.35;36.25;;;;;;;11.54;76.30;102616.16;4957769;28;20176;-61
2021/11/19 02:18:13;;;;;;;65.82;36.90;;;;;;;11.52;76.41;102620.59;4956861;28;20499;-61
2021/11/19 02:20:43;;;;;;;68.68;36.63;;;;;;;11.52;76.58;102614.47;4957643;28;20047;-61
2021/11/19 02:23:20;;;;;;;70.80;36.92;;;;;;;11.51;76.52;102610.97;4957444;28;20058;-62
2021/11/19 02:25:55;;;;;;;73.80;36.50;;;;;;;11.53;76.65;102605.66;4957121;28;20412;-60
2021/11/19 02:28:26;;;;;;;77.38;38.67;;;;;;;11.52;76.50;102602.19;4957469;28;20043;-62
2021/11/19 02:31:07;;;;;;;80.80;40.25;;;;;;;11.54;76.53;102600.38;4957426;28;20300;-63
2021/11/19 02:33:34;;;;;;;76.57;40.30;;;;;;;11.52;76.56;102590.81;4956430;28;20500;-61
2021/11/19 02:36:11;;;;;;;82.38;40.45;;;;;;;11.52;76.71;102593.44;4957120;28;20047;-64
2021/11/19 02:39:22;;;;;;;75.90;38.08;;;;;;;11.55;76.51;102604.72;4957467;28;20051;-60
2021/11/19 02:42:00;;;;;;;83.10;38.15;;;;;;;11.57;76.54;102607.31;4956918;28;20051;-61
2021/11/19 02:44:34;;;;;;;75.10;39.38;;;;;;;11.57;76.58;102597.63;4957207;28;20051;-61
2021/11/19 02:47:06;;;;;;;81.25;40.03;;;;;;;11.58;76.62;102599.38;4957221;28;20055;-61
2021/11/19 02:49:33;;;;;;;81.03;39.17;;;;;;;11.58;76.70;102595.88;4956035;28;20047;-61
2021/11/19 02:52:00;;;;;;;86.28;39.92;;;;;;;11.59;76.67;102600.22;4957081;28;20043;-61
2021/11/19 02:54:31;;;;;;;81.97;40.00;;;;;;;11.58;76.74;102599.38;4957092;28;20043;-66
2021/11/19 02:56:59;;;;;;;84.05;41.47;;;;;;;11.60;76.71;102607.19;4956980;28;20051;-61
2021/11/19 02:59:26;;;;;;;81.32;40.15;;;;;;;11.62;76.81;102594.00;4956813;28;20044;-61
2021/11/19 03:02:00;;;;;;;80.63;39.83;;;;;;;11.62;76.67;102599.25;4957136;28;20054;-61
2021/11/19 03:04:44;;;;;;;77.60;39.10;;;;;;;11.62;76.80;102597.50;4943732;28;20515;-66
2021/11/19 03:07:12;;;;;;;82.80;40.25;;;;;;;11.56;77.09;102598.53;4956503;28;20047;-61
2021/11/19 03:09:47;;;;;;;91.57;42.95;;;;;;;11.57;76.86;102602.91;4956884;28;20464;-61
2021/11/19 03:12:17;;;;;;;95.78;42.80;;;;;;;11.58;77.01;102599.38;4956652;28;20053;-61
2021/11/19 03:14:46;;;;;;;91.10;41.92;;;;;;;11.60;76.68;102591.41;4956815;28;20412;-61
2021/11/19 03:17:14;;;;;;;93.07;42.72;;;;;;;11.59;76.90;102592.31;4956666;28;20055;-61
2021/11/19 03:19:42;;;;;;;95.53;42.58;;;;;;;11.59;76.78;102576.53;4956161;28;20051;-62
2021/11/19 03:22:12;;;;;;;95.30;42.50;;;;;;;11.57;77.11;102573.13;4955489;28;20058;-61
2021/11/19 03:24:39;;;;;;;95.30;42.67;;;;;;;11.56;77.04;102580.13;4956503;28;20044;-61
2021/11/19 03:27:08;;;;;;;102.82;41.90;;;;;;;11.54;77.02;102576.72;4956604;28;20448;-61
2021/11/19 03:29:35;;;;;;;95.40;41.95;;;;;;;11.54;77.00;102573.19;4956091;28;20051;-62
2021/11/19 03:32:01;;;;;;;92.60;41.92;;;;;;;11.54;77.30;102573.19;4956489;28;20523;-60
2021/11/19 03:34:28;;;;;;;98.28;43.72;;;;;;;11.55;77.25;102569.66;4956235;28;20054;-60
2021/11/19 03:36:55;;;;;;;97.05;44.05;;;;;;;11.53;77.32;102572.34;4955109;28;20047;-61
2021/11/19 03:39:25;;;;;;;97.53;43.75;;;;;;;11.56;77.03;102584.53;4955703;28;20066;-61
2021/11/19 03:41:53;;;;;;;98.22;43.72;;;;;;;11.52;77.30;102586.41;4956168;28;20516;-61
2021/11/19 03:44:43;;;;;;;94.05;42.85;;;;;;;11.56;77.24;102587.16;4956102;28;20049;-61
2021/11/19 03:47:20;;;;;;;92.35;43.75;;;;;;;11.55;77.38;102582.81;4955991;28;20098;-61
2021/11/19 03:49:49;;;;;;;92.32;43.20;;;;;;;11.58;77.25;102585.38;4956090;28;20048;-61
2021/11/19 03:52:23;;;;;;;86.03;40.42;;;;;;;11.61;77.25;102585.25;4954924;28;20043;-61
2021/11/19 03:54:52;;;;;;;94.68;42.47;;;;;;;11.56;77.26;102588.03;4956152;28;20051;-69
2021/11/19 03:57:20;;;;;;;88.90;41.38;;;;;;;11.55;77.36;102594.22;4955695;28;20047;-69
2021/11/19 03:59:48;;;;;;;80.30;39.50;;;;;;;11.59;77.25;102600.22;4955217;28;20048;-61
2021/11/19 04:02:17;;;;;;;81.63;40.10;;;;;;;11.59;77.28;102595.84;4953993;28;20043;-61
2021/11/19 04:04:44;;;;;;;82.65;40.65;;;;;;;11.59;77.26;102595.84;4941104;28;20135;-62
2021/11/19 04:07:15;;;;;;;83.10;39.88;;;;;;;11.62;77.35;102596.63;4951824;28;20047;-60
2021/11/19 04:09:44;;;;;;;78.47;38.90;;;;;;;11.63;77.21;102595.72;4952049;28;20044;-60
2021/11/19 04:12:14;;;;;;;74.05;38.33;;;;;;;11.62;77.14;102600.13;4952516;28;20130;-61
2021/11/19 04:14:42;;;;;;;82.05;39.20;;;;;;;11.63;77.24;102598.34;4952782;28;20047;-67
2021/11/19 04:17:09;;;;;;;80.25;38.15;;;;;;;11.64;77.10;102593.03;4952404;28;20057;-61
2021/11/19 04:19:35;;;;;;;81.38;39.15;;;;;;;11.62;77.31;102600.13;4952039;28;20070;-61
2021/11/19 04:22:10;;;;;;;79.50;39.75;;;;;;;11.67;77.19;102597.34;4951805;28;20058;-60
2021/11/19 04:24:48;;;;;;;75.65;38.67;;;;;;;11.67;77.01;102602.59;4951079;28;20468;-61
2021/11/19 04:27:15;;;;;;;83.63;39.67;;;;;;;11.63;77.19;102598.34;4951831;28;20062;-61
2021/11/19 04:29:42;;;;;;;78.20;37.50;;;;;;;11.64;77.09;102613.22;4952031;28;20055;-61
2021/11/19 04:32:10;;;;;;;75.03;37.78;;;;;;;11.63;77.16;102608.88;4951290;28;20047;-61
2021/11/19 04:34:39;;;;;;;76.05;38.20;;;;;;;11.61;77.29;102601.03;4951851;28;20058;-61
2021/11/19 04:37:06;;;;;;;72.50;36.58;;;;;;;11.64;77.20;102605.34;4951894;28;20047;-61
2021/11/19 04:39:33;;;;;;;79.28;39.38;;;;;;;11.64;77.13;102603.56;4951409;28;20698;-61
2021/11/19 04:42:00;;;;;;;78.35;38.00;;;;;;;11.64;77.08;102610.59;4950890;28;20055;-60
2021/11/19 04:44:28;;;;;;;80.70;39.35;;;;;;;11.64;77.18;102614.06;4951729;28;20401;-61
2021/11/19 04:46:54;;;;;;;78.25;37.95;;;;;;;11.64;77.41;102608.81;4951467;28;20047;-60
2021/11/19 04:49:21;;;;;;;77.43;37.70;;;;;;;11.67;77.20;102607.84;4951678;28;20053;-60
2021/11/19 04:51:50;;;;;;;82.47;40.03;;;;;;;11.66;77.05;102611.41;4951698;28;20059;-61
2021/11/19 04:54:20;;;;;;;73.43;37.08;;;;;;;11.60;77.22;102610.72;4951851;28;20039;-66
2021/11/19 04:56:48;;;;;;;76.28;36.58;;;;;;;11.62;77.19;102615.03;4951953;28;20047;-65
2021/11/19 04:59:16;;;;;;;76.75;37.10;;;;;;;11.63;77.35;102603.59;4950738;28;20261;-61
2021/11/19 05:01:47;;;;;;;68.80;34.13;;;;;;;11.64;77.10;102598.28;4951784;28;20048;-61
2021/11/19 05:04:14;;;;;;;71.97;34.55;;;;;;;11.65;77.28;102607.91;4951588;28;20125;-61
2021/11/19 05:06:41;;;;;;;73.10;34.15;;;;;;;11.65;77.23;102600.03;4951467;28;20047;-60
2021/11/19 05:09:10;;;;;;;66.63;33.33;;;;;;;11.66;77.19;102598.28;4951431;28;20526;-61
2021/11/19 05:11:44;;;;;;;66.28;32.50;;;;;;;11.68;77.34;102596.44;4951550;28;20043;-61
2021/11/19 05:14:12;;;;;;;66.95;34.22;;;;;;;11.65;77.11;102583.41;4951557;28;20047;-61
2021/11/19 05:16:39;;;;;;;69.93;34.17;;;;;;;11.65;77.07;102584.25;4950957;28;20055;-61
2021/11/19 05:19:06;;;;;;;66.03;33.33;;;;;;;11.66;77.25;102593.88;4950891;28;20090;-60
2021/11/19 05:21:33;;;;;;;75.53;34.70;;;;;;;11.66;77.01;102593.00;4950600;28;20047;-59
2021/11/19 05:24:02;;;;;;;78.45;35.38;;;;;;;11.66;77.09;102595.66;4950848;28;20043;-59
2021/11/19 05:26:30;;;;;;;74.07;34.85;;;;;;;11.65;77.00;102588.66;4951293;28;20605;-59
2021/11/19 05:28:58;;;;;;;72.03;34.55;;;;;;;11.66;76.94;102585.97;4951236;28;20047;-60
2021/11/19 05:31:26;;;;;;;70.80;34.92;;;;;;;11.66;76.97;102593.88;4950123;28;20043;-60
2021/11/19 05:33:53;;;;;;;74.70;34.05;;;;;;;11.65;76.88;102601.81;4951197;28;20047;-59
2021/11/19 05:36:20;;;;;;;69.97;34.72;;;;;;;11.65;76.92;102600.03;4950795;28;20043;-67
2021/11/19 05:38:47;;;;;;;71.70;34.47;;;;;;;11.64;76.79;102602.72;4950766;28;20052;-67
2021/11/19 05:41:16;;;;;;;73.82;35.10;;;;;;;11.66;77.13;102600.91;4950609;28;20061;-59
2021/11/19 05:43:46;;;;;;;73.65;35.53;;;;;;;11.65;77.06;102594.75;4950914;28;20051;-59
2021/11/19 05:46:14;;;;;;;73.90;35.08;;;;;;;11.65;77.01;102602.66;4950196;28;20051;-59
2021/11/19 05:48:41;;;;;;;71.97;35.67;;;;;;;11.66;76.97;102609.63;4950660;28;20094;-59
2021/11/19 05:51:08;;;;;;;71.40;35.58;;;;;;;11.67;77.00;102607.84;4942643;28;20237;-59
2021/11/19 05:53:35;;;;;;;75.95;34.28;;;;;;;11.67;77.05;102610.50;4946570;28;20408;-67
2021/11/19 05:56:02;;;;;;;73.80;35.10;;;;;;;11.66;76.97;102612.28;4950824;28;20051;-59
2021/11/19 05:58:29;;;;;;;79.78;37.95;;;;;;;11.62;77.14;102618.53;4950650;28;20051;-58
2021/11/19 06:01:06;;;;;;;69.22;32.75;;;;;;;11.63;76.90;102609.75;4950586;28;20057;-61
2021/11/19 06:03:37;;;;;;;76.53;35.67;;;;;;;11.66;77.00;102617.53;4949349;28;20078;-72
2021/11/19 06:06:08;;;;;;;75.10;36.38;;;;;;;11.66;77.00;102619.31;4950672;28;20043;-62
2021/11/19 06:08:38;;;;;;;78.25;34.75;;;;;;;11.67;76.93;102611.38;4950530;28;20077;-62
2021/11/19 06:11:10;;;;;;;86.47;38.13;;;;;;;11.67;77.06;102618.38;4950480;28;20066;-69
2021/11/19 06:13:43;;;;;;;77.13;36.13;;;;;;;11.69;76.88;102630.56;4938921;28;20526;-71
2021/11/19 06:16:16;;;;;;;77.93;37.03;;;;;;;11.69;76.92;102629.72;4938692;28;20047;-62
2021/11/19 06:18:49;;;;;;;79.30;37.88;;;;;;;11.70;76.89;102629.66;4950675;28;20563;-62
2021/11/19 06:21:26;;;;;;;82.65;37.78;;;;;;;11.71;76.88;102627.91;4945979;28;20453;-69
2021/11/19 06:23:57;;;;;;;88.25;38.80;;;;;;;11.71;77.07;102628.75;4944018;28;20051;-63
2021/11/19 06:26:26;;;;;;;84.60;38.40;;;;;;;11.71;77.04;102626.13;4950266;28;20051;-64
2021/11/19 06:29:02;;;;;;;84.15;37.65;;;;;;;11.71;76.91;102636.66;4950715;28;20443;-62
2021/11/19 06:31:29;;;;;;;;;;;;;;;11.72;77.08;102645.44;4950553;28;20051;-65
2021/11/19 06:33:55;;;;;;;82.93;37.25;;;;;;;11.73;77.06;102636.59;4950489;28;19926;-62
2021/11/19 06:36:23;;;;;;;84.30;38.03;;;;;;;11.74;76.84;102633.94;4950073;28;20504;-62
2021/11/19 06:38:50;;;;;;;90.10;39.00;;;;;;;11.74;76.97;102643.59;4949241;28;20061;-62
2021/11/19 06:41:19;;;;;;;91.38;39.10;;;;;;;11.73;76.95;102645.38;4950143;28;20058;-73
2021/11/19 06:43:47;;;;;;;86.38;40.15;;;;;;;11.72;77.13;102646.28;4950258;28;20047;-63
2021/11/19 06:46:15;;;;;;;87.50;38.53;;;;;;;11.73;77.01;102655.00;4950618;28;20043;-69
2021/11/19 06:48:44;;;;;;;88.55;38.85;;;;;;;11.74;77.17;102656.75;4949606;28;20086;-62
2021/11/19 06:51:11;;;;;;;88.35;38.88;;;;;;;11.73;77.14;102658.53;4950364;28;20051;-62
2021/11/19 06:53:38;;;;;;;91.03;40.25;;;;;;;11.70;77.25;102655.13;4946204;28;20575;-62
2021/11/19 06:56:06;;;;;;;88.57;39.72;;;;;;;11.69;77.19;102661.28;4939101;28;20058;-62
2021/11/19 06:58:34;;;;;;;84.45;38.20;;;;;;;11.71;77.34;102660.31;4935384;28;20048;-60
2021/11/19 07:01:03;;;;;;;82.47;37.05;;;;;;;11.73;77.31;102660.28;4934314;28;20048;-60
2021/11/19 07:03:30;;;;;;;81.43;37.75;;;;;;;11.76;77.36;102657.56;4936523;28;20127;-60
2021/11/19 07:05:58;;;;;;;80.63;37.95;;;;;;;11.70;77.42;102670.91;4937914;28;20039;-60
2021/11/19 07:08:26;;;;;;;85.68;38.85;;;;;;;11.70;77.33;102663.84;4935305;28;20139;-60
2021/11/19 07:10:57;;;;;;;83.15;38.63;;;;;;;11.73;77.56;102668.16;4936601;28;20086;-60
2021/11/19 07:13:25;;;;;;;87.80;40.20;;;;;;;11.68;77.56;102673.59;4936413;28;20095;-61
2021/11/19 07:15:52;;;;;;;85.10;40.28;;;;;;;11.73;77.56;102670.78;4934843;28;20059;-62
2021/11/19 07:18:19;;;;;;;85.30;37.72;;;;;;;11.77;77.29;102667.19;4933931;28;20082;-59
2021/11/19 07:20:47;;;;;;;92.05;38.95;;;;;;;11.72;77.49;102667.31;4937663;28;20110;-59
2021/11/19 07:23:13;;;;;;;84.28;39.75;;;;;;;11.73;77.71;102674.31;4938899;28;20081;-60
2021/11/19 07:25:40;;;;;;;90.72;39.83;;;;;;;11.75;77.14;102672.47;4935492;28;20059;-59
2021/11/19 07:28:10;;;;;;;87.72;40.35;;;;;;;11.77;77.55;102677.69;4934796;28;20048;-59
2021/11/19 07:30:41;;;;;;;82.00;38.22;;;;;;;11.80;77.33;102677.59;4934418;28;20492;-70
2021/11/19 07:33:09;;;;;;;83.32;39.15;;;;;;;11.87;77.21;102670.38;4948170;28;20538;-59
2021/11/19 07:35:37;;;;;;;87.38;38.13;;;;;;;11.88;77.37;102679.97;4945039;28;20075;-71
2021/11/19 07:38:05;;;;;;;91.05;40.97;;;;;;;11.88;77.29;102677.34;4937646;28;20053;-61
2021/11/19 07:40:38;;;;;;;92.60;40.03;;;;;;;11.85;77.25;102673.06;4925145;28;20051;-67
2021/11/19 07:43:06;;;;;;;93.35;41.03;;;;;;;11.84;77.26;102671.31;4941593;28;20090;-66
2021/11/19 07:45:37;;;;;;;91.75;40.97;;;;;;;11.81;77.60;102681.06;4950270;28;20051;-69
2021/11/19 07:48:14;;;;;;;94.32;40.85;;;;;;;11.86;77.60;102680.03;4951121;28;20047;-63
2021/11/19 07:50:45;;;;;;;93.20;40.08;;;;;;;11.88;77.55;102678.25;4951543;28;21552;-64
2021/11/19 07:53:13;;;;;;;92.03;40.10;;;;;;;11.86;77.40;102676.53;4951574;28;20126;-62
2021/11/19 07:55:42;;;;;;;92.68;40.65;;;;;;;11.82;77.67;102675.78;4951268;28;20381;-61
2021/11/19 07:58:09;;;;;;;89.32;38.28;;;;;;;11.85;77.49;102680.09;4949492;28;20047;-64
2021/11/19 08:00:39;;;;;;;83.60;38.75;;;;;;;11.82;77.98;102686.31;4938458;28;20051;-64
2021/11/19 08:03:06;;;;;;;84.05;38.05;;;;;;;11.87;77.58;102701.94;4946347;28;20850;-60
2021/11/19 08:05:34;;;;;;;80.75;37.00;;;;;;;11.89;77.50;102686.97;4934817;28;20055;-61
2021/11/19 08:08:01;;;;;;;90.03;38.72;;;;;;;11.85;77.81;102691.47;4940086;28;20047;-62
2021/11/19 08:10:28;;;;;;;83.00;39.03;;;;;;;11.87;77.57;102694.91;4947998;28;20053;-61
2021/11/19 08:12:55;;;;;;;82.78;39.13;;;;;;;11.92;77.47;102700.03;4951907;28;20409;-59
2021/11/19 08:15:25;;;;;;;72.15;35.10;;;;;;;11.91;77.46;102698.31;4951714;28;20047;-60
2021/11/19 08:17:53;;;;;;;73.72;35.13;;;;;;;11.93;77.29;102707.91;4949241;28;20047;-60
2021/11/19 08:20:24;;;;;;;73.43;36.92;;;;;;;11.93;77.35;102701.75;4932225;28;20054;-59
2021/11/19 08:22:51;;;;;;;76.82;36.65;;;;;;;12.02;77.12;102701.50;4936539;28;20134;-60
2021/11/19 08:25:19;;;;;;;79.78;38.33;;;;;;;12.03;77.31;102697.94;4938239;28;20050;-60
2021/11/19 08:27:49;;;;;;;79.18;36.60;;;;;;;12.06;77.12;102695.25;4937871;28;20446;-61
2021/11/19 08:30:21;;;;;;;76.47;36.45;;;;;;;12.07;77.13;102696.09;4936952;28;20048;-70
2021/11/19 08:32:49;;;;;;;75.35;37.80;;;;;;;12.11;77.19;102697.72;4939501;28;20044;-60
2021/11/19 08:35:16;;;;;;;79.13;37.55;;;;;;;12.12;77.27;102693.31;4935523;28;20047;-61
2021/11/19 08:37:45;;;;;;;87.82;40.17;;;;;;;12.08;77.07;102696.03;4932715;28;20055;-64
2021/11/19 08:40:15;;;;;;;93.30;40.30;;;;;;;12.11;77.15;102694.22;4933514;28;20047;-61
2021/11/19 08:42:45;;;;;;;91.05;41.20;;;;;;;12.05;77.30;102700.56;4935280;28;20067;-60
2021/11/19 08:45:20;;;;;;;96.00;43.58;;;;;;;12.06;77.37;102697.88;4943258;28;20090;-62
2021/11/19 08:47:54;;;;;;;96.25;43.33;;;;;;;12.07;77.47;102696.97;4932710;28;20444;-60
2021/11/19 08:50:27;;;;;;;104.15;44.40;;;;;;;12.09;77.19;102697.75;4939910;28;20481;-61
2021/11/19 08:52:57;;;;;;;94.28;42.90;;;;;;;12.10;77.41;102698.66;4938081;28;20048;-61
2021/11/19 08:55:26;;;;;;;96.65;42.60;;;;;;;12.12;77.25;102688.06;4936911;28;20158;-66
2021/11/19 08:57:55;;;;;;;96.03;41.35;;;;;;;12.12;77.58;102693.31;4940450;28;20051;-67
2021/11/19 09:00:27;;;;;;;89.78;40.45;;;;;;;12.09;77.64;102697.75;4943663;28;20048;-70
2021/11/19 09:02:56;;;;;;;94.40;42.65;;;;;;;12.08;77.36;102687.28;4933490;28;20056;-61
2021/11/19 09:05:27;;;;;;;87.70;39.35;;;;;;;12.07;77.45;102696.09;4934690;28;20043;-69
2021/11/19 09:07:58;;;;;;;82.18;37.35;;;;;;;12.07;77.46;102702.22;4951882;28;20044;-61
2021/11/19 09:10:27;;;;;;;83.03;38.20;;;;;;;12.11;77.50;102705.59;4935267;28;20489;-61
2021/11/19 09:13:04;;;;;;;79.68;38.05;;;;;;;12.15;77.34;102704.63;4933124;28;20039;-67
2021/11/19 09:15:32;;;;;;;69.75;34.05;;;;;;;12.08;77.64;102713.59;4934291;28;20409;-61
2021/11/19 09:18:33;;;;;;;75.45;35.60;;;;;;;12.08;77.56;102709.19;4936074;28;20047;-61
2021/11/19 09:21:14;;;;;;;64.53;32.58;;;;;;;12.11;77.60;102713.50;4933380;28;20044;-60
2021/11/19 09:23:49;;;;;;;64.88;32.30;;;;;;;12.15;77.18;102709.88;4930989;28;20429;-61
2021/11/19 09:26:21;;;;;;;64.47;32.38;;;;;;;12.16;77.59;102711.59;4934967;28;20043;-63
2021/11/19 09:28:53;;;;;;;71.18;34.35;;;;;;;12.14;77.07;102707.28;4942875;28;20110;-60
2021/11/19 09:31:23;;;;;;;63.72;31.67;;;;;;;12.18;77.16;102703.66;4934895;28;20397;-60
2021/11/19 09:33:52;;;;;;;66.60;33.47;;;;;;;12.24;76.99;102703.47;4932096;28;20044;-61
2021/11/19 09:36:22;;;;;;;67.30;31.45;;;;;;;12.27;76.98;102695.47;4934046;28;20039;-60
2021/11/19 09:38:49;;;;;;;64.05;32.75;;;;;;;12.31;76.74;102704.13;4932133;28;20461;-68
2021/11/19 09:41:57;;;;;;;60.28;31.73;;;;;;;12.32;76.85;102703.22;4933677;28;20052;-63
2021/11/19 09:45:08;;;;;;;68.15;33.25;;;;;;;12.32;76.75;102690.06;4930892;29;20044;-63
2021/11/19 09:48:11;;;;;;;65.75;32.00;;;;;;;12.45;76.39;102686.09;4931762;28;20051;-67
2021/11/19 09:51:17;;;;;;;63.30;32.30;;;;;;;12.52;76.15;102677.09;4938707;28;20047;-66
2021/11/19 09:54:06;;;;;;;58.47;30.73;;;;;;;12.57;76.05;102666.41;4940648;28;20059;-64
2021/11/19 09:56:46;;;;;;;64.22;33.20;;;;;;;12.68;75.85;102656.31;4930976;28;20086;-65
2021/11/19 09:59:40;;;;;;;66.47;33.08;;;;;;;12.64;75.53;102657.34;4930510;28;20059;-60
2021/11/19 10:02:57;;;;;;;68.93;35.15;;;;;;;12.69;75.56;102650.16;4932231;28;20055;-69
2021/11/19 10:05:33;;;;;;;73.88;35.83;;;;;;;12.82;75.00;102652.38;4933204;28;20083;-68
2021/11/19 10:08:14;;;;;;;72.00;35.92;;;;;;;13.34;73.80;102639.06;4931789;28;20048;-61
2021/11/19 10:11:04;;;;;;;69.40;35.58;;;;;;;14.11;71.60;102635.22;4933203;28;20047;-59
2021/11/19 10:13:59;;;;;;;65.07;32.55;;;;;;;14.66;69.96;102637.31;4930530;28;20052;-66
2021/11/19 10:16:32;;;;;;;66.78;33.40;;;;;;;15.12;68.36;102632.63;4930093;28;20052;-65
2021/11/19 10:19:16;;;;;;;63.00;32.33;;;;;;;15.43;67.47;102625.91;4936173;28;20051;-67
2021/11/19 10:22:22;;;;;;;56.55;29.85;;;;;;;15.54;67.02;102627.19;4932934;28;20044;-70
2021/11/19 10:24:56;;;;;;;61.67;32.40;;;;;;;15.19;67.85;102625.25;4932079;28;20481;-63
2021/11/19 10:27:29;;;;;;;58.72;31.23;;;;;;;15.67;65.91;102626.53;4931234;28;20043;-67
2021/11/19 10:30:08;;;;;;;58.25;32.17;;;;;;;15.96;65.11;102619.00;4933931;28;20408;-64
2021/11/19 10:32:37;;;;;;;50.63;28.10;;;;;;;15.70;65.88;102619.38;4942509;28;20066;-63
2021/11/19 10:35:28;;;;;;;49.30;26.60;;;;;;;15.97;65.34;102627.78;4938503;28;20047;-61
2021/11/19 10:38:02;;;;;;;49.30;27.67;;;;;;;16.19;63.94;102622.28;4937145;28;20131;-61
2021/11/19 10:41:09;;;;;;;53.08;29.52;;;;;;;16.18;63.72;102612.63;4937049;28;20102;-70
2021/11/19 10:44:08;;;;;;;41.63;24.33;;;;;;;16.04;64.14;102609.81;4935584;28;20110;-66
2021/11/19 10:46:47;;;;;;;44.60;24.52;;;;;;;16.13;63.68;102606.69;4935398;28;20078;-68
2021/11/19 10:49:56;;;;;;;44.53;24.30;;;;;;;15.94;63.18;102612.06;4939308;28;20044;-60
2021/11/19 10:52:57;;;;;;;46.80;25.50;;;;;;;15.82;63.53;102600.25;4937308;28;20101;-61
2021/11/19 10:55:42;;;;;;;43.50;25.00;;;;;;;15.96;62.62;102595.16;4940645;28;21644;-60
2021/11/19 10:58:24;;;;;;;42.15;23.33;;;;;;;16.07;62.63;102589.31;4941191;28;20047;-65
2021/11/19 11:01:14;;;;;;;40.83;22.90;;;;;;;16.12;62.22;102592.59;4952560;28;20514;-61
2021/11/19 11:03:59;;;;;;;45.03;23.35;;;;;;;16.20;62.05;102592.22;4943297;28;20775;-60
2021/11/19 11:06:32;;;;;;;39.72;22.70;;;;;;;16.29;61.81;102581.16;4938315;28;20523;-62
2021/11/19 11:09:38;;;;;;;35.58;22.08;;;;;;;16.12;62.09;102578.50;4938220;28;20078;-68
2021/11/19 11:12:12;;;;;;;35.67;21.98;;;;;;;15.88;62.65;102575.28;4949164;28;20163;-60
2021/11/19 11:14:45;;;;;;;41.45;23.75;;;;;;;15.93;62.77;102576.75;4952963;28;20130;-61
2021/11/19 11:17:33;;;;;;;40.20;23.95;;;;;;;15.99;62.45;102578.25;4943252;28;20040;-62
2021/11/19 11:20:17;;;;;;;40.33;23.08;;;;;;;15.95;62.53;102572.25;4947200;28;20602;-63
2021/11/19 11:22:52;;;;;;;41.92;24.60;;;;;;;15.98;62.58;102568.59;4944298;28;20051;-66
2021/11/19 11:25:27;;;;;;;41.63;24.65;;;;;;;16.00;62.45;102564.09;4946525;28;20074;-62
2021/11/19 11:28:15;;;;;;;38.42;23.60;;;;;;;16.14;62.14;102553.66;4946992;28;20066;-70
2021/11/19 11:31:00;;;;;;;38.72;24.05;;;;;;;16.16;61.63;102551.78;4946481;28;20530;-62
2021/11/19 11:33:47;;;;;;;40.60;25.08;;;;;;;16.15;61.49;102555.38;4943958;28;20047;-68
2021/11/19 11:36:42;;;;;;;41.40;25.65;;;;;;;16.23;61.52;102554.13;4944033;28;20093;-64